createdAt,value
2023-04-17T00:00:15.768Z,27.27
2023-04-17T00:02:45.030Z,26.67
2023-04-17T00:05:16.697Z,28.88
2023-04-17T00:07:46.459Z,27.00
2023-04-17T00:10:14.836Z,31.00
2023-04-17T00:12:43.215Z,34.50
2023-04-17T00:15:11.961Z,28.80
2023-04-17T00:17:40.492Z,28.88
2023-04-17T00:20:10.703Z,32.10
2023-04-17T00:22:40.841Z,32.45
2023-04-17T00:25:12.853Z,32.40
2023-04-17T00:27:42.345Z,35.75
2023-04-17T00:30:11.366Z,34.72
2023-04-17T00:32:39.810Z,32.45
2023-04-17T00:35:08.820Z,30.58
2023-04-17T00:37:37.283Z,37.05
2023-04-17T00:40:08.279Z,40.22
2023-04-17T00:42:36.617Z,35.03
2023-04-17T00:45:05.954Z,39.30
2023-04-17T00:47:34.570Z,36.50
2023-04-17T00:50:03.594Z,39.30
2023-04-17T00:52:32.338Z,42.03
2023-04-17T00:55:00.913Z,39.63
2023-04-17T00:57:30.904Z,38.80
2023-04-17T01:00:00.236Z,41.10
2023-04-17T01:02:29.256Z,41.42
2023-04-17T01:04:57.822Z,37.47
2023-04-17T01:07:26.745Z,41.05
2023-04-17T01:09:55.517Z,36.80
2023-04-17T01:12:25.523Z,40.78
2023-04-17T01:14:56.747Z,39.67
2023-04-17T01:17:27.708Z,41.30
2023-04-17T01:19:56.574Z,41.70
2023-04-17T01:22:24.948Z,40.45
2023-04-17T01:24:59.190Z,43.90
2023-04-17T01:27:32.776Z,47.00
2023-04-17T01:30:01.257Z,43.20
2023-04-17T01:32:33.015Z,41.67
2023-04-17T01:35:01.456Z,42.85
2023-04-17T01:37:29.975Z,43.60
2023-04-17T01:40:00.972Z,42.13
2023-04-17T01:42:29.589Z,44.70
2023-04-17T01:44:57.985Z,45.17
2023-04-17T01:47:26.387Z,39.38
2023-04-17T01:49:54.788Z,45.47
2023-04-17T01:52:23.304Z,48.20
2023-04-17T01:54:51.655Z,42.67
2023-04-17T01:57:21.843Z,45.13
2023-04-17T01:59:50.290Z,42.92
2023-04-17T02:02:18.778Z,46.72
2023-04-17T02:04:47.304Z,46.05
2023-04-17T02:07:16.575Z,43.72
2023-04-17T02:09:45.202Z,42.08
2023-04-17T02:12:13.584Z,46.50
2023-04-17T02:14:43.308Z,48.45
2023-04-17T02:17:12.028Z,41.10
2023-04-17T02:19:40.427Z,42.90
2023-04-17T02:22:08.755Z,40.55
2023-04-17T02:24:37.126Z,48.50
2023-04-17T02:27:05.492Z,43.38
2023-04-17T02:29:33.841Z,43.25
2023-04-17T02:32:03.572Z,50.30
2023-04-17T02:34:32.232Z,47.28
2023-04-17T02:37:00.857Z,44.33
2023-04-17T02:39:29.370Z,45.45
2023-04-17T02:41:57.981Z,40.70
2023-04-17T02:44:27.118Z,46.13
2023-04-17T02:46:56.832Z,46.45
2023-04-17T02:49:27.226Z,47.40
2023-04-17T02:51:55.723Z,43.70
2023-04-17T02:54:24.128Z,46.17
2023-04-17T02:56:53.862Z,46.50
2023-04-17T02:59:22.247Z,44.45
2023-04-17T03:01:50.818Z,46.55
2023-04-17T03:04:22.116Z,42.78
2023-04-17T03:06:52.537Z,43.35
2023-04-17T03:09:22.334Z,45.28
2023-04-17T03:11:50.777Z,45.00
2023-04-17T03:14:19.140Z,45.13
2023-04-17T03:16:47.569Z,47.38
2023-04-17T03:19:16.113Z,48.10
2023-04-17T03:21:44.628Z,47.03
2023-04-17T03:24:14.352Z,43.78
2023-04-17T03:26:42.981Z,44.70
2023-04-17T03:29:17.479Z,46.40
2023-04-17T03:31:45.932Z,46.75
2023-04-17T03:34:14.339Z,46.42
2023-04-17T03:36:43.228Z,41.65
2023-04-17T03:39:12.166Z,42.17
2023-04-17T03:41:42.074Z,47.38
2023-04-17T03:44:10.762Z,45.17
2023-04-17T03:46:42.309Z,44.97
2023-04-17T03:49:11.467Z,46.17
2023-04-17T03:51:42.543Z,43.25
2023-04-17T03:54:17.344Z,42.85
2023-04-17T03:56:49.471Z,41.90
2023-04-17T03:59:18.098Z,46.75
2023-04-17T04:01:47.513Z,42.15
2023-04-17T04:04:20.429Z,45.38
2023-04-17T04:06:51.026Z,42.58
2023-04-17T04:09:22.231Z,45.50
2023-04-17T04:11:51.994Z,40.63
2023-04-17T04:14:20.515Z,45.42
2023-04-17T04:16:50.238Z,43.47
2023-04-17T04:19:18.607Z,45.83
2023-04-17T04:21:47.021Z,44.30
2023-04-17T04:24:16.579Z,44.17
2023-04-17T04:26:47.289Z,45.30
2023-04-17T04:29:17.880Z,45.70
2023-04-17T04:32:02.444Z,45.47
2023-04-17T04:34:36.787Z,50.42
2023-04-17T04:37:05.195Z,53.92
2023-04-17T04:39:42.999Z,49.25
2023-04-17T04:42:22.406Z,49.20
2023-04-17T04:45:02.525Z,53.15
2023-04-17T04:47:33.518Z,48.22
2023-04-17T04:50:02.408Z,54.22
2023-04-17T04:52:30.869Z,47.13
2023-04-17T04:55:02.544Z,46.40
2023-04-17T04:57:32.875Z,39.63
2023-04-17T05:00:06.932Z,38.05
2023-04-17T05:02:40.456Z,39.28
2023-04-17T05:05:12.353Z,36.90
2023-04-17T05:07:40.810Z,42.22
2023-04-17T05:10:12.624Z,37.92
2023-04-17T05:12:46.516Z,41.85
2023-04-17T05:15:17.300Z,37.10
2023-04-17T05:17:46.595Z,41.90
2023-04-17T05:20:16.250Z,41.63
2023-04-17T05:22:53.597Z,43.13
2023-04-17T05:25:24.121Z,49.60
2023-04-17T05:27:53.992Z,49.50
2023-04-17T05:30:24.584Z,53.28
2023-04-17T05:33:02.768Z,47.08
2023-04-17T05:35:41.832Z,47.70
2023-04-17T05:38:11.349Z,43.80
2023-04-17T05:40:39.755Z,48.88
2023-04-17T05:43:09.557Z,44.72
2023-04-17T05:45:41.281Z,40.60
2023-04-17T05:48:10.914Z,44.97
2023-04-17T05:50:39.479Z,48.80
2023-04-17T05:53:09.312Z,48.88
2023-04-17T05:58:23.783Z,49.67
2023-04-17T06:00:58.872Z,50.22
2023-04-17T06:03:29.445Z,47.17
2023-04-17T06:06:05.658Z,49.47
2023-04-17T06:08:34.418Z,46.20
2023-04-17T06:11:03.043Z,45.38
2023-04-17T06:13:32.106Z,38.88
2023-04-17T06:16:02.355Z,37.13
2023-04-17T06:18:30.885Z,32.42
2023-04-17T06:20:59.360Z,31.65
2023-04-17T06:23:29.834Z,33.00
2023-04-17T06:25:58.704Z,30.25
2023-04-17T06:28:27.103Z,35.38
2023-04-17T06:30:56.691Z,32.83
2023-04-17T06:33:26.885Z,36.85
2023-04-17T06:35:56.191Z,40.47
2023-04-17T06:38:44.973Z,45.13
2023-04-17T06:41:14.673Z,45.35
2023-04-17T06:43:43.281Z,50.88
2023-04-17T06:46:16.058Z,51.70
2023-04-17T06:48:45.817Z,55.20
2023-04-17T06:51:14.190Z,62.78
2023-04-17T06:53:42.549Z,60.75
2023-04-17T06:56:10.900Z,62.00
2023-04-17T06:58:44.013Z,62.80
2023-04-17T07:01:12.981Z,57.10
2023-04-17T07:03:42.489Z,60.03
2023-04-17T07:06:12.358Z,68.80
2023-04-17T07:08:40.830Z,58.22
2023-04-17T07:11:09.238Z,64.82
2023-04-17T07:13:37.653Z,58.17
2023-04-17T07:16:07.054Z,57.28
2023-04-17T07:18:35.476Z,58.60
2023-04-17T07:21:03.980Z,64.28
2023-04-17T07:23:33.708Z,64.47
2023-04-17T07:26:02.083Z,60.05
2023-04-17T07:28:30.692Z,60.05
2023-04-17T07:30:59.172Z,59.60
2023-04-17T07:33:27.711Z,55.22
2023-04-17T07:35:56.068Z,60.88
2023-04-17T07:38:24.523Z,57.88
2023-04-17T07:40:54.274Z,60.92
2023-04-17T07:43:22.621Z,62.30
2023-04-17T07:45:51.015Z,60.42
2023-04-17T07:48:19.468Z,56.20
2023-04-17T07:50:47.858Z,60.88
2023-04-17T07:53:16.599Z,64.70
2023-04-17T07:55:45.351Z,67.18
2023-04-17T07:58:16.316Z,60.83
2023-04-17T08:00:44.690Z,67.13
2023-04-17T08:03:14.420Z,61.17
2023-04-17T08:05:43.077Z,64.60
2023-04-17T08:08:11.463Z,71.90
2023-04-17T08:10:39.875Z,67.07
2023-04-17T08:13:08.289Z,68.55
2023-04-17T08:15:40.779Z,66.53
2023-04-17T08:18:10.458Z,66.43
2023-04-17T08:20:38.919Z,68.32
2023-04-17T08:23:07.312Z,67.65
2023-04-17T08:25:35.657Z,64.03
2023-04-17T08:28:04.117Z,74.47
2023-04-17T08:30:32.525Z,61.13
2023-04-17T08:33:02.340Z,69.70
2023-04-17T08:35:31.210Z,65.63
2023-04-17T08:38:00.086Z,68.68
2023-04-17T08:40:28.673Z,71.07
2023-04-17T08:42:57.008Z,68.38
2023-04-17T08:45:25.616Z,72.30
2023-04-17T08:47:54.157Z,70.70
2023-04-17T08:50:24.029Z,68.93
2023-04-17T08:52:53.037Z,70.32
2023-04-17T08:55:25.232Z,73.63
2023-04-17T08:58:03.523Z,75.15
2023-04-17T09:00:33.853Z,77.07
2023-04-17T09:03:04.550Z,70.05
2023-04-17T09:05:36.788Z,73.78
2023-04-17T09:08:13.274Z,66.82
2023-04-17T09:10:43.186Z,70.82
2023-04-17T09:13:14.413Z,73.55
2023-04-17T09:15:44.300Z,74.80
2023-04-17T09:18:31.392Z,67.35
2023-04-17T09:21:02.195Z,68.53
2023-04-17T09:23:32.026Z,70.03
2023-04-17T09:26:09.011Z,70.90
2023-04-17T09:28:39.510Z,66.20
2023-04-17T09:31:25.431Z,67.28
2023-04-17T09:36:28.623Z,62.28
2023-04-17T09:38:57.300Z,68.78
2023-04-17T09:41:27.247Z,97.68
2023-04-17T09:44:00.991Z,76.47
2023-04-17T09:46:33.941Z,65.32
2023-04-17T09:49:06.122Z,67.20
2023-04-17T09:51:36.745Z,67.80
2023-04-17T09:54:06.870Z,65.85
2023-04-17T09:56:37.802Z,61.47
2023-04-17T09:59:07.109Z,64.40
2023-04-17T10:01:37.585Z,64.85
2023-04-17T10:04:06.719Z,64.32
2023-04-17T10:06:37.049Z,61.75
2023-04-17T10:09:05.822Z,62.10
2023-04-17T10:11:37.253Z,65.35
2023-04-17T10:14:12.643Z,61.05
2023-04-17T10:19:30.263Z,61.63
2023-04-17T10:22:31.500Z,61.83
2023-04-17T10:25:20.349Z,61.72
2023-04-17T10:27:51.745Z,59.92
2023-04-17T10:30:22.210Z,55.33
2023-04-17T10:33:30.365Z,53.83
2023-04-17T10:35:58.717Z,58.67
2023-04-17T10:38:36.357Z,56.78
2023-04-17T10:41:09.133Z,53.58
2023-04-17T10:43:42.395Z,57.20
2023-04-17T10:46:12.286Z,53.25
2023-04-17T10:48:47.775Z,54.33
2023-04-17T10:51:42.232Z,49.45
2023-04-17T10:54:15.218Z,51.28
2023-04-17T10:56:47.402Z,47.90
2023-04-17T10:59:20.689Z,53.40
2023-04-17T11:02:03.860Z,49.58
2023-04-17T11:04:33.678Z,45.72
2023-04-17T11:07:02.598Z,45.42
2023-04-17T11:09:32.390Z,42.78
2023-04-17T11:12:02.650Z,44.08
2023-04-17T11:14:32.140Z,40.65
2023-04-17T11:17:02.094Z,40.58
2023-04-17T11:19:45.212Z,38.25
2023-04-17T11:22:19.262Z,39.97
2023-04-17T11:24:51.995Z,42.72
2023-04-17T11:27:20.555Z,36.63
2023-04-17T11:29:49.055Z,37.30
2023-04-17T11:32:17.553Z,43.60
2023-04-17T11:34:46.393Z,31.02
2023-04-17T11:37:15.810Z,33.58
2023-04-17T11:39:44.225Z,27.38
2023-04-17T11:42:14.106Z,25.50
2023-04-17T11:44:44.769Z,26.00
2023-04-17T11:47:13.301Z,25.30
2023-04-17T11:49:41.723Z,25.85
2023-04-17T11:52:11.607Z,26.17
2023-04-17T11:54:41.280Z,25.95
2023-04-17T11:57:14.735Z,24.45
2023-04-17T11:59:45.027Z,26.20
2023-04-17T12:02:15.206Z,22.55
2023-04-17T12:04:43.986Z,28.25
2023-04-17T12:07:24.788Z,38.78
2023-04-17T12:09:57.477Z,46.70
2023-04-17T12:12:27.357Z,18.63
2023-04-17T12:14:56.072Z,19.30
2023-04-17T12:17:24.578Z,21.23
2023-04-17T12:19:52.985Z,17.88
2023-04-17T12:22:21.544Z,18.95
2023-04-17T12:24:50.002Z,18.05
2023-04-17T12:27:19.873Z,18.75
2023-04-17T12:29:49.690Z,17.85
2023-04-17T12:32:18.136Z,19.35
2023-04-17T12:34:47.026Z,17.80
2023-04-17T12:37:16.020Z,13.88
2023-04-17T12:39:44.504Z,16.05
2023-04-17T12:42:12.959Z,17.85
2023-04-17T12:44:42.256Z,17.27
2023-04-17T12:47:12.244Z,15.07
2023-04-17T12:49:40.674Z,16.52
2023-04-17T12:52:09.138Z,16.80
2023-04-17T12:54:37.631Z,18.30
2023-04-17T12:57:06.141Z,17.40
2023-04-17T12:59:34.905Z,16.92
2023-04-17T13:02:03.555Z,15.32
2023-04-17T13:04:33.823Z,14.00
2023-04-17T13:07:02.482Z,16.75
2023-04-17T13:09:30.976Z,12.68
2023-04-17T13:11:59.399Z,14.95
2023-04-17T13:14:27.775Z,14.02
2023-04-17T13:16:56.437Z,16.23
2023-04-17T13:19:25.093Z,17.45
2023-04-17T13:21:54.871Z,20.65
2023-04-17T13:24:23.292Z,13.98
2023-04-17T13:26:51.729Z,13.73
2023-04-17T13:29:20.403Z,15.60
2023-04-17T13:31:49.617Z,14.90
2023-04-17T13:34:18.228Z,18.13
2023-04-17T13:36:46.731Z,16.02
2023-04-17T13:39:16.612Z,15.88
2023-04-17T13:41:45.610Z,25.65
2023-04-17T13:44:14.632Z,15.82
2023-04-17T13:47:14.214Z,14.77
2023-04-17T13:49:45.421Z,13.75
2023-04-17T13:52:13.905Z,13.88
2023-04-17T13:54:43.775Z,12.43
2023-04-17T13:57:14.554Z,11.38
2023-04-17T13:59:43.096Z,14.05
2023-04-17T14:02:11.649Z,14.50
2023-04-17T14:04:40.161Z,12.45
2023-04-17T14:07:08.635Z,14.07
2023-04-17T14:09:37.148Z,13.02
2023-04-17T14:12:07.345Z,12.57
2023-04-17T14:14:35.737Z,13.80
2023-04-17T14:17:04.241Z,12.77
2023-04-17T14:19:32.938Z,14.15
2023-04-17T14:22:01.394Z,12.88
2023-04-17T14:24:30.333Z,12.60
2023-04-17T14:26:59.003Z,15.43
2023-04-17T14:29:31.811Z,15.52
2023-04-17T14:32:00.495Z,15.50
2023-04-17T14:34:29.556Z,12.70
2023-04-17T14:36:58.359Z,10.63
2023-04-17T14:39:27.952Z,10.88
2023-04-17T14:41:59.568Z,10.60
2023-04-17T14:44:31.521Z,10.45
2023-04-17T14:47:00.009Z,10.95
2023-04-17T14:49:30.233Z,12.80
2023-04-17T14:51:58.918Z,10.07
2023-04-17T14:54:27.800Z,9.82
2023-04-17T14:56:56.181Z,10.07
2023-04-17T14:59:24.934Z,13.88
2023-04-17T15:01:55.118Z,11.68
2023-04-17T15:04:23.911Z,11.38
2023-04-17T15:06:52.481Z,10.77
2023-04-17T15:09:21.295Z,9.85
2023-04-17T15:11:49.858Z,13.07
2023-04-17T15:14:18.417Z,11.52
2023-04-17T15:16:47.091Z,11.30
2023-04-17T15:19:17.186Z,8.88
2023-04-17T15:21:45.976Z,8.95
2023-04-17T15:24:14.470Z,9.82
2023-04-17T15:26:44.667Z,10.75
2023-04-17T15:29:13.856Z,8.25
2023-04-17T15:31:42.524Z,8.15
2023-04-17T15:34:13.412Z,10.38
2023-04-17T15:36:43.522Z,9.50
2023-04-17T15:39:12.587Z,6.93
2023-04-17T15:41:41.586Z,9.27
2023-04-17T15:44:10.420Z,9.57
2023-04-17T15:46:39.173Z,8.68
2023-04-17T15:49:21.551Z,10.68
2023-04-17T15:51:52.070Z,9.50
2023-04-17T15:54:20.829Z,9.25
2023-04-17T15:56:49.459Z,11.82
2023-04-17T15:59:18.276Z,11.07
2023-04-17T16:01:47.280Z,9.15
2023-04-17T16:04:16.109Z,9.23
2023-04-17T16:06:44.875Z,9.82
2023-04-17T16:09:17.820Z,11.45
2023-04-17T16:11:47.350Z,9.13
2023-04-17T16:14:16.073Z,10.40
2023-04-17T16:16:44.705Z,9.60
2023-04-17T16:19:13.547Z,9.98
2023-04-17T16:21:42.481Z,9.35
2023-04-17T16:24:11.250Z,9.68
2023-04-17T16:26:42.630Z,8.40
2023-04-17T16:29:11.510Z,12.15
2023-04-17T16:31:41.225Z,9.93
2023-04-17T16:34:35.176Z,9.93
2023-04-17T16:37:03.963Z,8.63
2023-04-17T16:39:32.535Z,10.55
2023-04-17T16:42:15.596Z,10.00
2023-04-17T16:44:46.603Z,10.35
2023-04-17T16:47:15.669Z,10.45
2023-04-17T16:49:44.103Z,9.45
2023-04-17T16:52:21.139Z,9.50
2023-04-17T16:54:49.674Z,10.73
2023-04-17T16:57:19.657Z,9.02
2023-04-17T16:59:48.541Z,9.38
2023-04-17T17:02:42.777Z,10.60
2023-04-17T17:05:11.495Z,9.90
2023-04-17T17:07:40.587Z,10.43
2023-04-17T17:10:10.845Z,9.38
2023-04-17T17:12:41.539Z,12.55
2023-04-17T17:15:11.202Z,11.20
2023-04-17T17:17:39.929Z,8.82
2023-04-17T17:20:11.329Z,9.52
2023-04-17T17:22:49.113Z,10.18
2023-04-17T17:25:18.997Z,12.60
2023-04-17T17:27:48.932Z,8.48
2023-04-17T17:30:17.568Z,13.90
2023-04-17T17:32:46.148Z,10.75
2023-04-17T17:35:15.185Z,8.93
2023-04-17T17:37:46.375Z,10.80
2023-04-17T17:40:14.959Z,10.50
2023-04-17T17:42:45.006Z,14.23
2023-04-17T17:45:14.725Z,11.23
2023-04-17T17:47:47.815Z,10.82
2023-04-17T17:50:19.236Z,11.15
2023-04-17T17:52:47.572Z,11.13
2023-04-17T17:55:16.591Z,10.05
2023-04-17T17:57:49.634Z,10.30
2023-04-17T18:00:29.626Z,9.38
2023-04-17T18:02:58.204Z,9.35
2023-04-17T18:05:26.971Z,10.85
2023-04-17T18:07:55.412Z,9.55
2023-04-17T18:10:23.880Z,12.95
2023-04-17T18:12:52.258Z,10.23
2023-04-17T18:15:20.634Z,12.13
2023-04-17T18:17:50.427Z,11.82
2023-04-17T18:20:18.980Z,9.73
2023-04-17T18:22:47.353Z,11.20
2023-04-17T18:25:15.901Z,10.40
2023-04-17T18:27:45.039Z,11.02
2023-04-17T18:30:14.470Z,11.82
2023-04-17T18:32:42.833Z,11.80
2023-04-17T18:35:12.631Z,11.02
2023-04-17T18:37:43.198Z,10.55
2023-04-17T18:40:12.886Z,11.30
2023-04-17T18:42:41.211Z,11.05
2023-04-17T18:45:13.484Z,11.23
2023-04-17T18:47:41.998Z,11.63
2023-04-17T18:50:12.292Z,11.13
2023-04-17T18:52:43.206Z,15.75
2023-04-17T18:55:14.854Z,15.05
2023-04-17T18:57:43.249Z,9.95
2023-04-17T19:00:12.718Z,10.93
2023-04-17T19:02:41.764Z,10.57
2023-04-17T19:05:11.996Z,11.35
2023-04-17T19:07:40.766Z,11.57
2023-04-17T19:10:10.043Z,11.13
2023-04-17T19:12:38.406Z,14.35
2023-04-17T19:15:08.216Z,12.38
2023-04-17T19:17:36.647Z,11.50
2023-04-17T19:20:05.946Z,10.88
2023-04-17T19:22:35.646Z,10.18
2023-04-17T19:25:04.088Z,12.65
2023-04-17T19:27:32.519Z,11.73
2023-04-17T19:30:00.891Z,10.88
2023-04-17T19:32:31.579Z,11.80
2023-04-17T19:35:00.151Z,11.57
2023-04-17T19:37:28.640Z,9.68
2023-04-17T19:39:58.400Z,12.50
2023-04-17T19:42:27.059Z,12.18
2023-04-17T19:44:55.385Z,10.18
2023-04-17T19:47:24.845Z,9.15
2023-04-17T19:49:53.254Z,13.75
2023-04-17T19:52:21.622Z,11.05
2023-04-17T19:54:50.968Z,9.80
2023-04-17T19:57:20.739Z,11.45
2023-04-17T19:59:49.082Z,9.88
2023-04-17T20:02:21.245Z,10.13
2023-04-17T20:04:49.933Z,13.23
2023-04-17T20:07:18.311Z,11.27
2023-04-17T20:09:46.807Z,9.88
2023-04-17T20:12:15.168Z,11.90
2023-04-17T20:14:45.003Z,12.43
2023-04-17T20:17:13.384Z,9.90
2023-04-17T20:19:41.834Z,12.40
2023-04-17T20:22:10.520Z,10.30
2023-04-17T20:24:38.933Z,12.05
2023-04-17T20:27:07.255Z,12.45
2023-04-17T20:29:35.681Z,13.88
2023-04-17T20:32:05.435Z,12.95
2023-04-17T20:34:35.066Z,11.00
2023-04-17T20:37:03.413Z,11.05
2023-04-17T20:39:32.024Z,12.85
2023-04-17T20:42:01.521Z,11.25
2023-04-17T20:44:29.924Z,11.68
2023-04-17T20:46:58.267Z,14.57
2023-04-17T20:49:28.031Z,10.77
2023-04-17T20:51:56.461Z,12.23
2023-04-17T20:54:26.129Z,13.30
2023-04-17T20:56:54.490Z,11.77
2023-04-17T20:59:22.868Z,13.57
2023-04-17T21:01:52.084Z,11.73
2023-04-17T21:04:21.624Z,11.05
2023-04-17T21:06:51.377Z,12.93
2023-04-17T21:09:19.786Z,13.30
2023-04-17T21:11:48.286Z,11.02
2023-04-17T21:14:16.810Z,12.60
2023-04-17T21:16:45.493Z,13.70
2023-04-17T21:19:16.075Z,12.25
2023-04-17T21:21:44.416Z,12.55
2023-04-17T21:24:14.377Z,12.63
2023-04-17T21:26:42.900Z,12.95
2023-04-17T21:29:11.636Z,14.05
2023-04-17T21:31:40.014Z,12.05
2023-04-17T21:34:08.656Z,14.25
2023-04-17T21:36:37.087Z,11.57
2023-04-17T21:39:06.597Z,11.38
2023-04-17T21:41:36.394Z,13.00
2023-04-17T21:44:05.609Z,12.82
2023-04-17T21:46:34.072Z,12.40
2023-04-17T21:49:02.538Z,11.90
2023-04-17T21:51:31.395Z,12.45
2023-04-17T21:53:59.868Z,10.88
2023-04-17T21:56:28.293Z,11.48
2023-04-17T21:58:57.985Z,13.00
2023-04-17T22:01:26.381Z,15.23
2023-04-17T22:03:54.908Z,11.70
2023-04-17T22:06:23.254Z,11.07
2023-04-17T22:08:51.559Z,13.45
2023-04-17T22:11:19.836Z,12.70
2023-04-17T22:13:48.303Z,13.15
2023-04-17T22:16:18.012Z,12.00
2023-04-17T22:18:46.360Z,12.43
2023-04-17T22:21:14.745Z,12.90
2023-04-17T22:23:43.111Z,11.63
2023-04-17T22:26:11.645Z,11.52
2023-04-17T22:28:40.063Z,12.68
2023-04-17T22:31:08.429Z,12.27
2023-04-17T22:33:38.228Z,12.55
2023-04-17T22:36:06.848Z,13.32
2023-04-17T22:38:35.234Z,14.88
2023-04-17T22:41:04.036Z,16.75
2023-04-17T22:43:32.577Z,13.10
2023-04-17T22:46:01.003Z,13.52
2023-04-17T22:48:29.397Z,14.48
2023-04-17T22:50:59.194Z,15.07
2023-04-17T22:53:27.642Z,13.95
2023-04-17T22:56:02.861Z,14.05
2023-04-17T22:58:32.306Z,14.90
2023-04-17T23:01:01.335Z,13.75
2023-04-17T23:03:30.060Z,16.00
2023-04-17T23:06:00.163Z,15.02
2023-04-17T23:08:30.975Z,15.10
2023-04-17T23:11:00.563Z,14.63
2023-04-17T23:13:29.258Z,16.73
2023-04-17T23:15:57.852Z,15.73
2023-04-17T23:18:26.252Z,19.15
2023-04-17T23:20:54.631Z,16.45
2023-04-17T23:23:24.341Z,16.08
2023-04-17T23:25:53.136Z,20.58
2023-04-17T23:28:21.606Z,18.83
2023-04-17T23:30:49.998Z,16.52
2023-04-17T23:33:18.436Z,16.15
2023-04-17T23:35:46.875Z,16.27
2023-04-17T23:38:15.326Z,19.65
2023-04-17T23:40:45.165Z,21.73
2023-04-17T23:43:13.680Z,17.27
2023-04-17T23:45:42.139Z,18.50
2023-04-17T23:48:10.729Z,18.13
2023-04-17T23:50:39.238Z,18.25
2023-04-17T23:53:08.016Z,20.92
2023-04-17T23:55:36.610Z,20.40
2023-04-17T23:58:06.619Z,18.55
